X  Cerrar Datos meteorológicos de aviación METAR        LGTS Thessaloniki Macedonia International
Temperatura
11°C Temperatura
11°C Punto de rocío
100% Humedad



Viento
1 M/S
2 MPH
4 KM/H
2 NUDO



-1°
VRB
Condiciones actuales

Mostly Cloudy Mayormente nublado
Presión 1010 (hPa) - 29.82 (inHg)
Visibilidad 4 (milla) - 7 (km)
Aeropuerto
Código de aeropuerto LGTS

localidad: Thessaloniki Macedonia International
Distancia: 85 (km)

Metar:
METAR LGTS 012220Z VRB02KT 7000 SCT004 BKN020 11/11 Q1010 NOSIG

Hora: 02-03-2024 00:20 EET